Relevés horaires Beauvechain (Belgique)


Relevés horaires à Beauvechain - Samedi 11 Mars 2017
Heure UTC1 Température [°C] Vent [km/h] Hum. [%] Pres.4 [hPa] Visi. [Km] Nébu. [octa] Préc.5 [mm] Cond.
2m. Res. Ros. Dir.2 Vit. Moy. Raf.3
23:00 7.9 7.9 2.3 ESE 3.7 -- 5.6 68 1016.8(-1.3/3h) 20 -- -- --
22:00 7.8 7.8 2.3 NNO 1.9 -- 5.6 68 1017.2(-1.5/3h) 20 -- -- --
21:00 8.3 8.3 2.4 NNO 3.7 -- 7.4 66 1017.7(-1.1/3h) 20 -- -- --
20:00 8.9 8.9 2.2 E 3.7 -- 5.6 63 1018.2(-0.5/3h) 20 -- -- --
19:00 9.0 8.4 2.5 ENE 5.6 -- 7.4 64 1018.7(-0.3/3h) 20 -- -- --
18:00 10.4 10.4 2.1 ENE 3.7 -- 9.3 56 1018.7(-0.6/3h) 20 -- -- --
17:00 11.4 11.2 2.2 E 5.6 -- 7.4 53 1018.7(-1.2/3h) 20 -- -- --
16:00 12.3 12.3 2.7 ENE 3.7 -- 7.4 52 1019(-1.1/3h) 20 -- -- --
15:00 12.6 12.6 2.0 ENE 5.6 -- 7.4 48 1019.2(-1.3/3h) 20 -- -- --
14:00 12.6 12.6 0.5 E 3.7 -- 7.4 43 1019.8(-1.4/3h) 20 -- -- --
13:00 12.7 12.7 1.0 NNO 1.9 -- 3.7 45 1020.2(-1.5/3h) 20 -- -- --
12:00 12.8 12.8 1.6 NNO 1.9 -- 7.4 46 1020.7(-1.3/3h) 20 -- -- --
11:00 11.5 11.5 1.6 S 3.7 -- 7.4 51 1021.5(-1.0/3h) 20 -- -- --
10:00 10.3 10.3 1.7 S 3.7 -- 7.4 55 1021.8(-0.4/3h) 20 -- -- --
09:00 8.3 8.3 1.5 SSE 3.7 -- 7.4 62 1022.2(-0.2/3h) 20 -- -- --
08:00 6.3 6.3 -- NNO 1.9 -- 5.6 -- 1022.7(-0.4/3h) 20 -- -- --
07:00 5.0 5.0 -0.7 NNO 1.9 -- 1.9 67 1022.7(-1.1/3h) 20 -- -- --
06:00 4.2 4.2 -0.7 NNO 1.9 -- 3.7 70 1022.7(-1.3/3h) 20 -- -- --
05:00 4.8 4.8 -0.8 NNO 1.9 -- 1.9 67 1023.3(-0.9/3h) 20 -- -- --
04:00 4.9 4.9 -0.4 NNO 1.9 -- 1.9 68 1023.7(-1.1/3h) 20 -- -- --
03:00 5.0 5.0 -- NNO 1.9 -- 3.7 -- 1024(-0.9/3h) 20 -- -- --
02:00 5.8 5.8 0.3 NNO 1.9 -- 3.7 68 1024.2(-1.1/3h) 20 -- -- --
01:00 5.9 5.9 0.6 NNO 1.9 -- 3.7 69 1024.9(-0.9/3h) 20 -- -- --
00:00 6.6 6.6 0.9 NNO 1.9 -- 7.4 67 1025(-1.1/3h) 20 -- -- --

1 Coordinated Universal Time. Actuellement il est 17:00 locale et 16:00 UTC.

2 Le vent souffle depuis la direction indiquée vers la direction oposée.

3 Les rafales max. sont disponible 40 min après l'heure du relevé.

4 Pour les stations d'altitude (plus de 600m) le géopotentiel du niveau le plus proche de la pression obligatoire est indiqué.

5 Les stations disposant d'un diffuseur peuvent indiquer "trace". Cela signifie que des précipitations ont touchés le sol mais que la quantité est inférieure à 0.1 mm.

Récapitulatif de la journée
Température [°C] Vent [km/h] Ensoleillement4 [h] Precipitations totale5 [mm] Pression [Hpa]
Min1 Max.2 Moy.3 Max. Min Max.
3.9 13.1 0 9.3 0 h 0 min 0 1016.8 1025.0

1 Température minimale relevée entre 18:00 UTC la veille et 18:00 UTC le jour donné.

2 Température maximale relevée entre 06:00 UTC le jour donné et 06:00 UTC le lendemain.

3 Vent moyen de la journée basé sur les relevés horaires.

4 Ensoleillement en heures relevé entre 06:00 UTC la veille et 06:00 UTC le jour donné.

5 Précipitations totales tombées entre 06:00 UTC la jour donné et 06:00 UTC le lendemain.

Graphiques horaires